createdAt,value
2022-11-29T00:00:12.038Z,5.90
2022-11-29T00:00:49.142Z,5.68
2022-11-29T00:01:27.135Z,5.44
2022-11-29T00:01:58.927Z,5.31
2022-11-29T00:02:30.799Z,5.32
2022-11-29T00:03:02.838Z,5.46
2022-11-29T00:03:34.683Z,5.66
2022-11-29T00:04:06.533Z,5.89
2022-11-29T00:04:38.579Z,6.13
2022-11-29T00:05:10.317Z,6.36
2022-11-29T00:05:42.034Z,6.59
2022-11-29T00:06:16.069Z,6.83
2022-11-29T00:06:47.713Z,7.04
2022-11-29T00:07:19.757Z,7.18
2022-11-29T00:07:51.582Z,7.25
2022-11-29T00:08:23.586Z,7.21
2022-11-29T00:08:56.231Z,7.07
2022-11-29T00:09:28.082Z,6.88
2022-11-29T00:09:59.810Z,6.64
2022-11-29T00:10:31.459Z,6.40
2022-11-29T00:11:11.409Z,6.17
2022-11-29T00:12:01.745Z,5.89
2022-11-29T00:12:33.438Z,5.57
2022-11-29T00:13:05.160Z,5.39
2022-11-29T00:13:37.068Z,5.22
2022-11-29T00:14:09.959Z,5.17
2022-11-29T00:14:42.327Z,5.24
2022-11-29T00:15:14.965Z,5.46
2022-11-29T00:15:46.703Z,5.73
2022-11-29T00:16:18.442Z,6.01
2022-11-29T00:16:54.680Z,6.25
2022-11-29T00:17:26.386Z,6.48
2022-11-29T00:17:58.039Z,6.64
2022-11-29T00:18:29.751Z,6.79
2022-11-29T00:19:01.772Z,6.92
2022-11-29T00:19:34.280Z,7.05
2022-11-29T00:20:06.607Z,7.14
2022-11-29T00:20:38.812Z,7.16
2022-11-29T00:21:10.516Z,7.10
2022-11-29T00:21:42.166Z,6.96
2022-11-29T00:22:13.824Z,6.79
2022-11-29T00:22:45.491Z,6.58
2022-11-29T00:23:17.259Z,6.35
2022-11-29T00:23:49.147Z,6.14
2022-11-29T00:24:21.022Z,5.93
2022-11-29T00:24:52.940Z,5.72
2022-11-29T00:25:24.893Z,5.52
2022-11-29T00:26:02.292Z,5.36
2022-11-29T00:26:33.982Z,5.25
2022-11-29T00:27:05.721Z,5.28
2022-11-29T00:27:37.528Z,5.39
2022-11-29T00:28:09.307Z,5.52
2022-11-29T00:28:41.154Z,5.69
2022-11-29T00:29:12.985Z,5.86
2022-11-29T00:29:44.901Z,6.02
2022-11-29T00:30:17.133Z,6.19
2022-11-29T00:30:48.871Z,6.34
2022-11-29T00:31:20.646Z,6.48
2022-11-29T00:31:52.773Z,6.59
2022-11-29T00:32:24.554Z,6.67
2022-11-29T00:32:56.355Z,6.72
2022-11-29T00:33:28.746Z,6.77
2022-11-29T00:34:01.710Z,6.81
2022-11-29T00:34:33.748Z,6.86
2022-11-29T00:35:09.659Z,6.87
2022-11-29T00:35:41.867Z,6.79
2022-11-29T00:36:13.863Z,6.65
2022-11-29T00:36:45.676Z,6.47
2022-11-29T00:37:17.424Z,6.26
2022-11-29T00:37:49.265Z,6.06
2022-11-29T00:38:20.921Z,5.84
2022-11-29T00:38:52.952Z,5.64
2022-11-29T00:39:25.071Z,5.46
2022-11-29T00:39:56.822Z,5.29
2022-11-29T00:40:28.554Z,5.19
2022-11-29T00:41:00.245Z,5.19
2022-11-29T00:41:32.287Z,5.28
2022-11-29T00:42:04.991Z,5.41
2022-11-29T00:42:36.803Z,5.56
2022-11-29T00:43:08.641Z,5.69
2022-11-29T00:43:40.823Z,5.83
2022-11-29T00:44:18.409Z,5.94
2022-11-29T00:44:51.695Z,6.05
2022-11-29T00:45:23.367Z,6.12
2022-11-29T00:45:55.197Z,6.20
2022-11-29T00:46:27.141Z,6.26
2022-11-29T00:46:58.966Z,6.29
2022-11-29T00:47:30.766Z,6.32
2022-11-29T00:48:02.452Z,6.35
2022-11-29T00:48:34.527Z,6.36
2022-11-29T00:49:06.284Z,6.35
2022-11-29T00:49:38.209Z,6.37
2022-11-29T00:50:10.267Z,6.38
2022-11-29T00:50:42.097Z,6.38
2022-11-29T00:51:14.800Z,6.37
2022-11-29T00:51:47.359Z,6.34
2022-11-29T00:52:19.163Z,6.32
2022-11-29T00:52:50.928Z,6.30
2022-11-29T00:53:22.842Z,6.29
2022-11-29T00:53:54.758Z,6.26
2022-11-29T00:54:26.572Z,6.25
2022-11-29T00:54:58.286Z,6.24
2022-11-29T00:55:30.035Z,6.24
2022-11-29T00:56:02.502Z,6.23
2022-11-29T00:56:34.356Z,6.23
2022-11-29T00:57:06.249Z,6.31
2022-11-29T00:57:37.961Z,6.43
2022-11-29T00:58:09.711Z,6.59
2022-11-29T00:58:43.059Z,6.77
2022-11-29T00:59:14.948Z,6.94
2022-11-29T00:59:46.908Z,7.06
2022-11-29T01:00:18.749Z,7.16
2022-11-29T01:00:52.453Z,7.15
2022-11-29T01:01:24.464Z,7.03
2022-11-29T01:01:56.315Z,6.85
2022-11-29T01:02:28.838Z,6.65
2022-11-29T01:03:00.912Z,6.44
2022-11-29T01:03:32.884Z,6.21
2022-11-29T01:04:04.767Z,6.00
2022-11-29T01:04:36.613Z,5.77
2022-11-29T01:05:08.532Z,5.58
2022-11-29T01:05:40.941Z,5.40
2022-11-29T01:06:14.675Z,5.25
2022-11-29T01:06:49.708Z,5.17
2022-11-29T01:07:21.741Z,5.28
2022-11-29T01:07:53.707Z,5.48
2022-11-29T01:08:25.613Z,5.73
2022-11-29T01:08:57.354Z,5.99
2022-11-29T01:09:29.115Z,6.27
2022-11-29T01:10:00.976Z,6.53
2022-11-29T01:10:33.191Z,6.76
2022-11-29T01:11:13.926Z,6.97
2022-11-29T01:11:45.688Z,7.18
2022-11-29T01:12:17.446Z,7.32
2022-11-29T01:12:49.451Z,7.40
2022-11-29T01:13:21.206Z,7.37
2022-11-29T01:13:54.460Z,7.26
2022-11-29T01:14:26.379Z,7.06
2022-11-29T01:14:58.540Z,6.85
2022-11-29T01:15:30.535Z,6.62
2022-11-29T01:16:02.901Z,6.39
2022-11-29T01:16:34.703Z,6.16
2022-11-29T01:17:06.488Z,5.94
2022-11-29T01:17:38.937Z,5.75
2022-11-29T01:18:11.012Z,5.56
2022-11-29T01:18:43.158Z,5.38
2022-11-29T01:19:14.985Z,5.27
2022-11-29T01:19:50.646Z,5.30
2022-11-29T01:20:22.811Z,5.46
2022-11-29T01:21:03.149Z,5.67
2022-11-29T01:21:35.005Z,5.97
2022-11-29T01:22:06.777Z,6.24
2022-11-29T01:22:38.913Z,6.50
2022-11-29T01:23:10.937Z,6.74
2022-11-29T01:23:43.527Z,6.96
2022-11-29T01:24:15.241Z,7.13
2022-11-29T01:24:47.192Z,7.26
2022-11-29T01:25:19.217Z,7.26
2022-11-29T01:26:02.014Z,7.16
2022-11-29T01:26:33.927Z,6.91
2022-11-29T01:27:05.687Z,6.67
2022-11-29T01:27:37.317Z,6.45
2022-11-29T01:28:09.032Z,6.23
2022-11-29T01:28:40.830Z,5.99
2022-11-29T01:29:12.706Z,5.77
2022-11-29T01:29:44.412Z,5.58
2022-11-29T01:30:16.378Z,5.38
2022-11-29T01:30:48.496Z,5.21
2022-11-29T01:31:22.359Z,5.14
2022-11-29T01:31:54.047Z,5.20
2022-11-29T01:32:25.855Z,5.35
2022-11-29T01:32:57.643Z,5.55
2022-11-29T01:33:29.312Z,5.78
2022-11-29T01:34:02.320Z,5.99
2022-11-29T01:34:34.296Z,6.19
2022-11-29T01:35:06.391Z,6.36
2022-11-29T01:35:38.662Z,6.53
2022-11-29T01:36:12.108Z,6.70
2022-11-29T01:36:43.997Z,6.89
2022-11-29T01:37:15.782Z,7.04
2022-11-29T01:37:47.760Z,7.12
2022-11-29T01:38:19.554Z,7.08
2022-11-29T01:38:51.449Z,6.95
2022-11-29T01:39:23.612Z,6.75
2022-11-29T01:39:55.415Z,6.52
2022-11-29T01:40:27.009Z,6.28
2022-11-29T01:41:01.491Z,6.06
2022-11-29T01:41:34.357Z,5.80
2022-11-29T01:42:06.056Z,5.57
2022-11-29T01:42:37.975Z,5.37
2022-11-29T01:43:16.983Z,5.17
2022-11-29T01:43:54.908Z,5.05
2022-11-29T01:44:27.464Z,5.12
2022-11-29T01:45:00.822Z,5.27
2022-11-29T01:45:37.825Z,5.50
2022-11-29T01:46:10.743Z,5.74
2022-11-29T01:46:43.677Z,5.97
2022-11-29T01:47:16.847Z,6.18
2022-11-29T01:47:50.075Z,6.37
2022-11-29T01:48:23.929Z,6.55
2022-11-29T01:48:58.626Z,6.72
2022-11-29T01:49:32.584Z,6.87
2022-11-29T01:50:04.875Z,6.96
2022-11-29T01:50:37.534Z,6.94
2022-11-29T01:51:09.651Z,6.83
2022-11-29T01:51:43.821Z,6.65
2022-11-29T01:52:26.032Z,6.42
2022-11-29T01:52:58.151Z,6.12
2022-11-29T01:53:30.065Z,5.90
2022-11-29T01:54:02.171Z,5.69
2022-11-29T01:54:36.913Z,5.49
2022-11-29T01:55:09.753Z,5.27
2022-11-29T01:55:45.589Z,5.10
2022-11-29T01:56:17.672Z,5.02
2022-11-29T01:56:50.493Z,5.09
2022-11-29T01:57:23.305Z,5.27
2022-11-29T01:57:56.392Z,5.51
2022-11-29T01:58:28.638Z,5.77
2022-11-29T01:59:04.880Z,6.01
2022-11-29T01:59:40.526Z,6.25
2022-11-29T02:00:13.969Z,6.46
2022-11-29T02:00:46.096Z,6.60
2022-11-29T02:01:17.874Z,6.73
2022-11-29T02:01:49.734Z,6.83
2022-11-29T02:02:29.303Z,6.87
2022-11-29T02:03:19.069Z,6.79
2022-11-29T02:03:50.853Z,6.55
2022-11-29T02:04:22.871Z,6.36
2022-11-29T02:04:54.757Z,6.14
2022-11-29T02:05:26.534Z,5.92
2022-11-29T02:05:58.688Z,5.71
2022-11-29T02:06:30.669Z,5.52
2022-11-29T02:07:02.722Z,5.33
2022-11-29T02:07:34.768Z,5.16
2022-11-29T02:08:08.063Z,5.06
2022-11-29T02:08:41.186Z,5.10
2022-11-29T02:09:18.103Z,5.22
2022-11-29T02:09:49.855Z,5.44
2022-11-29T02:10:25.470Z,5.67
2022-11-29T02:11:06.360Z,5.91
2022-11-29T02:11:38.014Z,6.15
2022-11-29T02:12:16.856Z,6.28
2022-11-29T02:12:54.644Z,6.47
2022-11-29T02:13:35.386Z,6.66
2022-11-29T02:14:07.235Z,6.87
2022-11-29T02:14:59.959Z,7.03
2022-11-29T02:15:51.872Z,7.15
2022-11-29T02:16:26.278Z,6.99
2022-11-29T02:17:03.477Z,6.81
2022-11-29T02:17:38.288Z,6.57
2022-11-29T02:18:21.469Z,6.34
2022-11-29T02:18:56.525Z,6.03
2022-11-29T02:19:31.408Z,5.81
2022-11-29T02:20:15.252Z,5.59
2022-11-29T02:20:56.985Z,5.35
2022-11-29T02:21:32.034Z,5.16
2022-11-29T02:22:09.862Z,5.11
2022-11-29T02:22:46.868Z,5.24
2022-11-29T02:23:18.557Z,5.45
2022-11-29T02:23:50.227Z,5.67
2022-11-29T02:24:24.876Z,5.89
2022-11-29T02:25:15.377Z,6.11
2022-11-29T02:25:53.199Z,6.34
2022-11-29T02:26:25.002Z,6.48
2022-11-29T02:26:56.607Z,6.60
2022-11-29T02:27:37.691Z,6.72
2022-11-29T02:28:27.848Z,6.86
2022-11-29T02:29:17.788Z,7.03
2022-11-29T02:29:58.976Z,7.31
2022-11-29T02:30:43.031Z,7.57
2022-11-29T02:31:20.581Z,7.71
2022-11-29T02:31:58.468Z,7.65
2022-11-29T02:32:36.124Z,7.47
2022-11-29T02:33:29.713Z,7.23
2022-11-29T02:34:08.951Z,6.85
2022-11-29T02:34:51.409Z,6.57
2022-11-29T02:35:23.528Z,6.27
2022-11-29T02:35:55.276Z,6.06
2022-11-29T02:36:30.291Z,5.86
2022-11-29T02:37:31.257Z,5.66
2022-11-29T02:38:05.896Z,5.31
2022-11-29T02:38:55.651Z,5.17
2022-11-29T02:39:45.834Z,5.16
2022-11-29T02:40:20.602Z,5.45
2022-11-29T02:41:17.987Z,5.73
2022-11-29T02:42:01.872Z,6.18
2022-11-29T02:42:54.110Z,6.55
2022-11-29T02:43:37.412Z,6.92
2022-11-29T02:44:18.450Z,7.17
2022-11-29T02:45:08.635Z,7.37
2022-11-29T02:45:48.355Z,7.38
2022-11-29T02:46:36.219Z,7.22
2022-11-29T02:47:10.762Z,6.93
2022-11-29T02:48:00.881Z,6.69
2022-11-29T02:48:44.911Z,6.32
2022-11-29T02:49:35.291Z,6.04
2022-11-29T02:50:15.995Z,5.71
2022-11-29T02:50:50.395Z,5.48
2022-11-29T02:51:40.774Z,5.29
2022-11-29T02:52:24.780Z,5.08
2022-11-29T02:52:59.317Z,5.09
2022-11-29T02:53:37.304Z,5.28
2022-11-29T02:54:08.912Z,5.59
2022-11-29T02:55:04.178Z,5.87
2022-11-29T02:55:48.120Z,6.31
2022-11-29T02:56:33.586Z,6.61
2022-11-29T02:57:19.200Z,6.87
2022-11-29T02:58:03.287Z,7.05
2022-11-29T02:58:41.660Z,7.11
2022-11-29T02:59:22.846Z,7.02
2022-11-29T02:59:59.358Z,6.83
2022-11-29T03:00:33.136Z,6.61
2022-11-29T03:01:07.992Z,6.39
2022-11-29T03:01:45.934Z,6.16
2022-11-29T03:02:21.059Z,5.91
2022-11-29T03:03:25.314Z,5.69
2022-11-29T03:03:57.770Z,5.32
2022-11-29T03:04:58.537Z,5.16
2022-11-29T03:05:44.228Z,5.09
2022-11-29T03:06:31.607Z,5.29
2022-11-29T03:07:09.641Z,5.61
2022-11-29T03:07:41.448Z,5.90
2022-11-29T03:08:22.166Z,6.13
2022-11-29T03:09:00.413Z,6.39
2022-11-29T03:09:50.608Z,6.59
2022-11-29T03:10:28.342Z,6.82
2022-11-29T03:11:02.943Z,6.94
2022-11-29T03:11:41.034Z,7.01
2022-11-29T03:12:12.658Z,6.98
2022-11-29T03:12:45.761Z,6.88
2022-11-29T03:13:37.709Z,6.72
2022-11-29T03:14:26.352Z,6.39
2022-11-29T03:15:16.637Z,6.06
2022-11-29T03:15:57.108Z,5.75
2022-11-29T03:16:42.816Z,5.51
2022-11-29T03:17:33.525Z,5.27
2022-11-29T03:18:14.223Z,5.08
2022-11-29T03:18:45.867Z,5.11
2022-11-29T03:19:20.695Z,5.24
2022-11-29T03:20:18.814Z,5.43
2022-11-29T03:21:09.359Z,5.74
2022-11-29T03:21:48.235Z,6.00
2022-11-29T03:22:28.051Z,6.22
2022-11-29T03:23:08.160Z,6.45
2022-11-29T03:23:54.520Z,6.70
2022-11-29T03:24:31.201Z,6.94
2022-11-29T03:25:09.378Z,7.06
2022-11-29T03:25:59.705Z,7.11
2022-11-29T03:26:54.254Z,7.01
2022-11-29T03:27:35.311Z,6.70
2022-11-29T03:28:07.181Z,6.44
2022-11-29T03:28:41.965Z,6.24
2022-11-29T03:29:16.732Z,6.01
2022-11-29T03:29:48.577Z,5.78
2022-11-29T03:30:21.240Z,5.59
2022-11-29T03:31:13.768Z,5.39
2022-11-29T03:32:17.790Z,5.18
2022-11-29T03:33:09.448Z,5.35
2022-11-29T03:33:41.088Z,5.70
2022-11-29T03:34:28.158Z,5.93
2022-11-29T03:35:09.042Z,6.21
2022-11-29T03:35:40.576Z,6.43
2022-11-29T03:36:27.280Z,6.53
2022-11-29T03:37:01.946Z,6.75
2022-11-29T03:37:42.730Z,6.93
2022-11-29T03:38:14.304Z,7.09
2022-11-29T03:38:46.696Z,7.06
2022-11-29T03:39:20.618Z,6.92
2022-11-29T03:40:05.560Z,6.80
2022-11-29T03:40:45.029Z,6.54
2022-11-29T03:41:22.846Z,6.29
2022-11-29T03:41:59.998Z,6.04
2022-11-29T03:42:49.745Z,5.80
2022-11-29T03:43:30.199Z,5.50
2022-11-29T03:44:11.147Z,5.27
2022-11-29T03:44:48.794Z,5.08
2022-11-29T03:45:21.122Z,5.01
2022-11-29T03:46:13.027Z,5.07
2022-11-29T03:46:51.865Z,5.24
2022-11-29T03:47:27.164Z,5.38
2022-11-29T03:48:09.470Z,5.53
2022-11-29T03:49:03.569Z,5.71
2022-11-29T03:49:40.448Z,5.89
2022-11-29T03:50:24.623Z,6.01
2022-11-29T03:50:59.221Z,6.13
2022-11-29T03:51:49.072Z,6.20
2022-11-29T03:52:32.795Z,6.28
2022-11-29T03:53:15.815Z,6.33
2022-11-29T03:53:56.263Z,6.34
2022-11-29T03:54:51.009Z,6.36
2022-11-29T03:55:48.938Z,6.34
2022-11-29T03:56:23.873Z,6.31
2022-11-29T03:56:55.556Z,6.34
2022-11-29T03:57:31.794Z,6.33
2022-11-29T03:58:06.450Z,6.33
2022-11-29T03:58:53.478Z,6.34
2022-11-29T03:59:33.518Z,6.34
2022-11-29T04:00:09.936Z,6.35
2022-11-29T04:00:47.849Z,6.32
2022-11-29T04:01:22.595Z,6.30
2022-11-29T04:02:02.219Z,6.29
2022-11-29T04:03:19.290Z,6.29
2022-11-29T04:03:56.992Z,6.24
2022-11-29T04:04:37.695Z,6.25
2022-11-29T04:05:09.713Z,6.24
2022-11-29T04:06:07.606Z,6.23
2022-11-29T04:06:59.423Z,6.26
2022-11-29T04:07:34.351Z,6.32
2022-11-29T04:08:24.543Z,6.43
2022-11-29T04:09:05.384Z,6.59
2022-11-29T04:09:40.018Z,6.71
2022-11-29T04:10:17.105Z,6.81
2022-11-29T04:11:07.756Z,6.96
2022-11-29T04:12:02.570Z,7.09
2022-11-29T04:12:57.082Z,7.03
2022-11-29T04:13:47.666Z,6.77
2022-11-29T04:14:25.192Z,6.43
2022-11-29T04:15:02.868Z,6.18
2022-11-29T04:15:37.645Z,5.92
2022-11-29T04:16:09.443Z,5.70
2022-11-29T04:16:53.356Z,5.50
2022-11-29T04:17:40.080Z,5.25
2022-11-29T04:18:30.326Z,5.05
2022-11-29T04:19:05.158Z,5.05
2022-11-29T04:19:54.920Z,5.18
2022-11-29T04:20:37.717Z,5.44
2022-11-29T04:21:17.035Z,5.69
2022-11-29T04:22:00.865Z,5.90
2022-11-29T04:22:35.505Z,6.07
2022-11-29T04:23:10.119Z,6.17
2022-11-29T04:23:44.964Z,6.25
2022-11-29T04:24:35.003Z,6.36
2022-11-29T04:25:09.413Z,6.55
2022-11-29T04:25:50.632Z,6.75
2022-11-29T04:26:41.129Z,6.99
2022-11-29T04:27:30.413Z,7.25
2022-11-29T04:28:05.085Z,7.44
2022-11-29T04:28:52.121Z,7.46
2022-11-29T04:29:29.654Z,7.30
2022-11-29T04:30:01.578Z,7.08
2022-11-29T04:30:52.727Z,6.86
2022-11-29T04:31:43.354Z,6.48
2022-11-29T04:32:33.076Z,6.12
2022-11-29T04:33:16.787Z,5.78
2022-11-29T04:34:07.580Z,5.53
2022-11-29T04:34:45.431Z,5.29
2022-11-29T04:35:20.164Z,5.28
2022-11-29T04:36:04.514Z,5.47
2022-11-29T04:36:54.261Z,5.82
2022-11-29T04:37:47.645Z,6.25
2022-11-29T04:38:25.602Z,6.66
2022-11-29T04:39:00.112Z,6.98
2022-11-29T04:39:50.419Z,7.20
2022-11-29T04:40:40.753Z,7.39
2022-11-29T04:41:31.295Z,7.36
2022-11-29T04:42:02.887Z,7.09
2022-11-29T04:42:53.021Z,6.89
2022-11-29T04:43:27.443Z,6.53
2022-11-29T04:44:17.974Z,6.27
2022-11-29T04:44:49.640Z,5.93
2022-11-29T04:45:35.181Z,5.71
2022-11-29T04:46:19.114Z,5.43
2022-11-29T04:47:06.265Z,5.20
2022-11-29T04:47:38.004Z,5.17
2022-11-29T04:48:12.896Z,5.32
2022-11-29T04:49:02.972Z,5.63
2022-11-29T04:50:10.177Z,6.12
2022-11-29T04:51:00.449Z,6.72
2022-11-29T04:51:50.327Z,7.14
2022-11-29T04:52:36.582Z,7.48
2022-11-29T04:53:16.256Z,7.59
2022-11-29T04:53:51.573Z,7.48
2022-11-29T04:54:26.085Z,7.25
2022-11-29T04:55:23.767Z,7.03
2022-11-29T04:56:23.687Z,6.53
2022-11-29T04:57:06.155Z,6.12
2022-11-29T04:57:57.997Z,5.82
2022-11-29T04:58:35.760Z,5.48
2022-11-29T04:59:07.876Z,5.27
2022-11-29T04:59:44.965Z,5.12
2022-11-29T05:00:20.015Z,5.10
2022-11-29T05:01:03.407Z,5.27
2022-11-29T05:01:38.120Z,5.61
2022-11-29T05:02:32.934Z,5.95
2022-11-29T05:03:11.408Z,6.46
2022-11-29T05:03:56.750Z,6.78
2022-11-29T05:04:47.353Z,7.14
2022-11-29T05:05:28.206Z,7.41
2022-11-29T05:06:10.936Z,7.46
2022-11-29T05:06:57.860Z,7.33
2022-11-29T05:07:58.907Z,7.01
2022-11-29T05:08:48.787Z,6.56
2022-11-29T05:09:49.460Z,6.17
2022-11-29T05:10:42.981Z,5.74
2022-11-29T05:11:33.383Z,5.41
2022-11-29T05:12:11.033Z,5.13
2022-11-29T05:12:48.459Z,4.97
2022-11-29T05:13:23.189Z,4.99
2022-11-29T05:14:03.919Z,5.18
2022-11-29T05:14:40.979Z,5.54
2022-11-29T05:15:28.782Z,5.91
2022-11-29T05:16:19.086Z,6.37
2022-11-29T05:17:09.560Z,6.81
2022-11-29T05:17:50.562Z,7.22
2022-11-29T05:18:37.368Z,7.52
2022-11-29T05:19:27.972Z,7.75
2022-11-29T05:20:38.217Z,7.73
2022-11-29T05:21:33.049Z,7.30
2022-11-29T05:22:24.937Z,6.90
2022-11-29T05:22:56.711Z,6.49
2022-11-29T05:23:31.467Z,6.24
2022-11-29T05:24:15.618Z,6.00
2022-11-29T05:24:56.363Z,5.72
2022-11-29T05:25:28.115Z,5.48
2022-11-29T05:26:05.762Z,5.31
2022-11-29T05:26:49.867Z,5.15
2022-11-29T05:27:27.633Z,5.20
2022-11-29T05:28:11.522Z,5.46
2022-11-29T05:28:55.148Z,5.89
2022-11-29T05:29:45.257Z,6.34
2022-11-29T05:30:21.915Z,6.84
2022-11-29T05:31:12.428Z,7.16
2022-11-29T05:31:49.991Z,7.51
2022-11-29T05:32:24.332Z,7.57
2022-11-29T05:33:04.093Z,7.51
2022-11-29T05:33:38.821Z,7.30
2022-11-29T05:34:10.363Z,7.05
2022-11-29T05:34:45.233Z,6.80
2022-11-29T05:35:46.132Z,6.55
2022-11-29T05:36:48.726Z,6.08
2022-11-29T05:37:32.919Z,5.66
2022-11-29T05:38:24.084Z,5.40
2022-11-29T05:38:58.547Z,5.16
2022-11-29T05:39:30.221Z,5.20
2022-11-29T05:40:07.832Z,5.40
2022-11-29T05:40:59.149Z,5.74
2022-11-29T05:41:50.009Z,6.28
2022-11-29T05:42:27.662Z,6.77
2022-11-29T05:43:17.925Z,7.12
2022-11-29T05:43:55.997Z,7.52
2022-11-29T05:44:31.072Z,7.79
2022-11-29T05:45:14.205Z,7.89
2022-11-29T05:45:46.529Z,7.81
2022-11-29T05:46:26.175Z,7.63
2022-11-29T05:46:57.913Z,7.34
2022-11-29T05:47:34.956Z,7.08
2022-11-29T05:48:13.358Z,6.78
2022-11-29T05:48:57.817Z,6.46
2022-11-29T05:49:41.321Z,6.12
2022-11-29T05:50:41.957Z,5.81
2022-11-29T05:51:16.644Z,5.43
2022-11-29T05:51:48.642Z,5.24
2022-11-29T05:52:21.022Z,5.12
2022-11-29T05:52:56.671Z,5.12
2022-11-29T05:53:41.318Z,5.32
2022-11-29T05:54:22.489Z,5.72
2022-11-29T05:55:03.347Z,6.16
2022-11-29T05:55:34.966Z,6.62
2022-11-29T05:56:12.322Z,6.90
2022-11-29T05:56:48.737Z,7.25
2022-11-29T05:57:43.768Z,7.55
2022-11-29T05:58:30.600Z,7.73
2022-11-29T05:59:18.213Z,7.59
2022-11-29T05:59:50.871Z,7.31
2022-11-29T06:00:23.150Z,7.06
2022-11-29T06:01:27.009Z,6.82
2022-11-29T06:02:05.590Z,6.32
2022-11-29T06:02:37.426Z,6.04
2022-11-29T06:03:14.849Z,5.85
2022-11-29T06:03:46.633Z,5.62
2022-11-29T06:04:18.299Z,5.44
2022-11-29T06:04:57.010Z,5.27
2022-11-29T06:05:35.125Z,5.23
2022-11-29T06:06:12.613Z,5.39
2022-11-29T06:06:57.721Z,5.68
2022-11-29T06:07:44.157Z,6.11
2022-11-29T06:08:22.514Z,6.56
2022-11-29T06:09:15.806Z,6.91
2022-11-29T06:09:50.315Z,7.30
2022-11-29T06:10:28.349Z,7.54
2022-11-29T06:11:05.915Z,7.68
2022-11-29T06:11:40.469Z,7.64
2022-11-29T06:12:20.667Z,7.48
2022-11-29T06:12:52.997Z,7.20
2022-11-29T06:13:37.817Z,6.95
2022-11-29T06:14:22.297Z,6.62
2022-11-29T06:15:16.066Z,6.30
2022-11-29T06:16:04.528Z,5.94
2022-11-29T06:16:48.184Z,5.65
2022-11-29T06:17:24.019Z,5.42
2022-11-29T06:18:13.924Z,5.27
2022-11-29T06:18:48.489Z,5.25
2022-11-29T06:19:23.089Z,5.45
2022-11-29T06:20:03.796Z,5.75
2022-11-29T06:20:38.635Z,6.14
2022-11-29T06:21:25.429Z,6.50
2022-11-29T06:22:06.703Z,6.94
2022-11-29T06:23:13.586Z,7.25
2022-11-29T06:23:48.386Z,7.49
2022-11-29T06:24:38.785Z,7.42
2022-11-29T06:25:20.496Z,7.15
2022-11-29T06:26:10.923Z,6.85
2022-11-29T06:26:51.718Z,6.49
2022-11-29T06:27:23.361Z,6.22
2022-11-29T06:28:15.090Z,5.99
2022-11-29T06:28:49.783Z,5.66
2022-11-29T06:29:33.553Z,5.47
2022-11-29T06:30:13.437Z,5.23
2022-11-29T06:30:48.234Z,5.06
2022-11-29T06:31:20.092Z,5.03
2022-11-29T06:31:55.885Z,5.16
2022-11-29T06:32:34.647Z,5.43
2022-11-29T06:33:19.747Z,5.79
2022-11-29T06:34:12.240Z,6.19
2022-11-29T06:34:48.684Z,6.63
2022-11-29T06:35:39.523Z,6.93
2022-11-29T06:36:33.458Z,7.31
2022-11-29T06:37:19.390Z,7.59
2022-11-29T06:37:52.187Z,7.62
2022-11-29T06:38:28.317Z,7.51
2022-11-29T06:39:00.320Z,7.32
2022-11-29T06:39:32.268Z,7.12
2022-11-29T06:40:04.951Z,6.88
2022-11-29T06:40:37.187Z,6.63
2022-11-29T06:41:13.616Z,6.40
2022-11-29T06:41:46.515Z,6.13
2022-11-29T06:42:18.201Z,5.92
2022-11-29T06:42:50.561Z,5.72
2022-11-29T06:43:22.378Z,5.54
2022-11-29T06:43:54.234Z,5.37
2022-11-29T06:44:26.249Z,5.30
2022-11-29T06:44:58.058Z,5.37
2022-11-29T06:45:29.941Z,5.57
2022-11-29T06:46:17.211Z,5.85
2022-11-29T06:46:54.171Z,6.31
2022-11-29T06:47:46.416Z,6.66
2022-11-29T06:48:21.708Z,7.08
2022-11-29T06:49:02.074Z,7.33
2022-11-29T06:49:34.165Z,7.55
2022-11-29T06:50:24.482Z,7.56
2022-11-29T06:50:56.273Z,7.43
2022-11-29T06:51:43.147Z,7.27
2022-11-29T06:52:20.949Z,6.97
2022-11-29T06:53:11.266Z,6.69
2022-11-29T06:53:48.965Z,6.35
2022-11-29T06:54:20.611Z,6.10
2022-11-29T06:55:07.414Z,5.90
2022-11-29T06:55:47.962Z,5.63
2022-11-29T06:56:25.658Z,5.41
2022-11-29T06:57:06.579Z,5.23
2022-11-29T06:57:56.279Z,5.07
2022-11-29T06:58:32.872Z,5.15
2022-11-29T06:59:10.208Z,5.43
2022-11-29T07:00:14.060Z,5.75
2022-11-29T07:00:48.521Z,6.32
2022-11-29T07:01:28.586Z,6.62
2022-11-29T07:02:02.826Z,6.95
2022-11-29T07:02:37.628Z,7.21
2022-11-29T07:03:18.130Z,7.43
2022-11-29T07:03:50.019Z,7.51
2022-11-29T07:04:21.835Z,7.41
2022-11-29T07:04:59.698Z,7.26
2022-11-29T07:05:32.697Z,7.04
2022-11-29T07:06:10.490Z,6.82
2022-11-29T07:06:42.560Z,6.55
2022-11-29T07:07:18.141Z,6.33
2022-11-29T07:07:51.132Z,6.08
2022-11-29T07:08:23.555Z,5.86
2022-11-29T07:09:00.186Z,5.65
2022-11-29T07:09:33.753Z,5.43
2022-11-29T07:10:10.558Z,5.27
2022-11-29T07:10:45.971Z,5.18
2022-11-29T07:11:17.833Z,5.28
2022-11-29T07:11:49.751Z,5.48
2022-11-29T07:12:21.723Z,5.75
2022-11-29T07:12:53.690Z,6.06
2022-11-29T07:13:25.581Z,6.36
2022-11-29T07:13:57.237Z,6.64
2022-11-29T07:14:29.159Z,6.91
2022-11-29T07:15:00.929Z,7.15
2022-11-29T07:15:32.826Z,7.37
2022-11-29T07:16:08.614Z,7.50
2022-11-29T07:16:43.499Z,7.51
2022-11-29T07:17:23.561Z,7.37
2022-11-29T07:18:01.131Z,7.12
2022-11-29T07:18:48.121Z,6.85
2022-11-29T07:19:25.810Z,6.52
2022-11-29T07:20:07.648Z,6.25
2022-11-29T07:20:45.407Z,5.93
2022-11-29T07:21:23.161Z,5.72
2022-11-29T07:22:01.183Z,5.50
2022-11-29T07:22:45.400Z,5.29
2022-11-29T07:23:17.041Z,5.10
2022-11-29T07:23:48.680Z,5.11
2022-11-29T07:24:30.065Z,5.23
2022-11-29T07:25:08.193Z,5.54
2022-11-29T07:25:52.792Z,5.91
2022-11-29T07:26:27.769Z,6.40
2022-11-29T07:27:08.007Z,6.80
2022-11-29T07:27:39.733Z,7.21
2022-11-29T07:28:30.221Z,7.48
2022-11-29T07:29:10.973Z,7.67
2022-11-29T07:29:50.443Z,7.61
2022-11-29T07:30:27.035Z,7.42
2022-11-29T07:31:02.013Z,7.16
2022-11-29T07:31:42.604Z,6.90
2022-11-29T07:32:23.465Z,6.60
2022-11-29T07:33:07.461Z,6.30
2022-11-29T07:33:51.623Z,6.01
2022-11-29T07:34:44.045Z,5.74
2022-11-29T07:35:18.893Z,5.45
2022-11-29T07:35:56.779Z,5.29
2022-11-29T07:36:33.911Z,5.15
2022-11-29T07:37:08.753Z,5.18
2022-11-29T07:38:03.816Z,5.39
2022-11-29T07:38:44.414Z,5.86
2022-11-29T07:39:16.303Z,6.25
2022-11-29T07:39:55.048Z,6.57
2022-11-29T07:40:37.214Z,6.93
2022-11-29T07:41:38.519Z,7.25
2022-11-29T07:42:16.178Z,7.52
2022-11-29T07:42:48.369Z,7.49
2022-11-29T07:43:23.175Z,7.35
2022-11-29T07:43:59.988Z,7.18
2022-11-29T07:45:10.679Z,6.95
2022-11-29T07:45:42.542Z,6.45
2022-11-29T07:46:14.409Z,6.24
2022-11-29T07:46:46.481Z,6.04
2022-11-29T07:47:18.367Z,5.84
2022-11-29T07:47:51.155Z,5.64
2022-11-29T07:48:23.027Z,5.47
2022-11-29T07:48:54.795Z,5.32
2022-11-29T07:49:26.425Z,5.26
2022-11-29T07:49:58.261Z,5.35
2022-11-29T07:50:30.463Z,5.54
2022-11-29T07:51:02.574Z,5.79
2022-11-29T07:51:34.453Z,6.08
2022-11-29T07:52:06.552Z,6.38
2022-11-29T07:52:38.311Z,6.64
2022-11-29T07:53:16.043Z,6.89
2022-11-29T07:53:47.927Z,7.15
2022-11-29T07:54:20.062Z,7.31
2022-11-29T07:54:51.948Z,7.40
2022-11-29T07:55:24.983Z,7.37
2022-11-29T07:55:57.343Z,7.23
2022-11-29T07:56:29.433Z,7.03
2022-11-29T07:57:01.212Z,6.81
2022-11-29T07:57:33.175Z,6.59
2022-11-29T07:58:05.006Z,6.35
2022-11-29T07:58:36.895Z,6.12
2022-11-29T07:59:12.374Z,5.91
2022-11-29T07:59:44.407Z,5.69
2022-11-29T08:00:16.909Z,5.51
2022-11-29T08:00:48.743Z,5.35
2022-11-29T08:01:20.736Z,5.29
2022-11-29T08:01:52.721Z,5.37
2022-11-29T08:02:28.090Z,5.59
2022-11-29T08:02:59.892Z,5.88
2022-11-29T08:03:32.593Z,6.18
2022-11-29T08:04:04.414Z,6.47
2022-11-29T08:04:40.336Z,6.74
2022-11-29T08:05:12.024Z,7.02
2022-11-29T08:05:47.355Z,7.25
2022-11-29T08:06:26.070Z,7.42
2022-11-29T08:06:59.207Z,7.47
2022-11-29T08:07:33.409Z,7.37
2022-11-29T08:08:05.546Z,7.20
2022-11-29T08:08:43.538Z,7.00
2022-11-29T08:09:15.896Z,6.73
2022-11-29T08:09:47.971Z,6.50
2022-11-29T08:10:19.840Z,6.29
2022-11-29T08:10:51.469Z,6.05
2022-11-29T08:11:23.256Z,5.86
2022-11-29T08:11:54.995Z,5.65
2022-11-29T08:12:26.654Z,5.46
2022-11-29T08:12:58.379Z,5.30
2022-11-29T08:13:30.215Z,5.23
2022-11-29T08:14:03.077Z,5.29
2022-11-29T08:14:34.831Z,5.44
2022-11-29T08:15:07.140Z,5.68
2022-11-29T08:15:48.404Z,5.97
2022-11-29T08:16:20.248Z,6.35
2022-11-29T08:16:52.037Z,6.65
2022-11-29T08:17:25.426Z,6.92
2022-11-29T08:17:57.319Z,7.20
2022-11-29T08:18:29.140Z,7.41
2022-11-29T08:19:00.845Z,7.52
2022-11-29T08:19:32.638Z,7.51
2022-11-29T08:20:04.983Z,7.40
2022-11-29T08:20:36.814Z,7.22
2022-11-29T08:21:08.640Z,7.00
2022-11-29T08:21:42.469Z,6.76
2022-11-29T08:22:14.079Z,6.52
2022-11-29T08:22:53.147Z,6.31
2022-11-29T08:23:24.977Z,6.05
2022-11-29T08:23:56.822Z,5.85
2022-11-29T08:24:28.601Z,5.66
2022-11-29T08:25:01.001Z,5.49
2022-11-29T08:25:32.788Z,5.36